sensor_id;sensor_type;location;lat;lon;timestamp;P1;durP1;ratioP1;P2;durP2;ratioP2
40827;SDS011;26549;50.918;5.338;2023-10-13T00:00:32;19.33;;;7.03;;
40827;SDS011;26549;50.918;5.338;2023-10-13T00:03:02;9.45;;;6.13;;
40827;SDS011;26549;50.918;5.338;2023-10-13T00:05:29;13.18;;;6.63;;
40827;SDS011;26549;50.918;5.338;2023-10-13T00:08:02;8.25;;;5.63;;
40827;SDS011;26549;50.918;5.338;2023-10-13T00:10:29;9.55;;;5.78;;
40827;SDS011;26549;50.918;5.338;2023-10-13T00:12:56;7.90;;;5.70;;
40827;SDS011;26549;50.918;5.338;2023-10-13T00:15:38;9.15;;;5.70;;
40827;SDS011;26549;50.918;5.338;2023-10-13T00:18:22;8.43;;;5.60;;
40827;SDS011;26549;50.918;5.338;2023-10-13T00:21:02;9.80;;;6.55;;
40827;SDS011;26549;50.918;5.338;2023-10-13T00:23:37;7.95;;;5.75;;
40827;SDS011;26549;50.918;5.338;2023-10-13T00:26:04;11.95;;;5.90;;
40827;SDS011;26549;50.918;5.338;2023-10-13T00:28:34;11.43;;;5.68;;
40827;SDS011;26549;50.918;5.338;2023-10-13T00:31:09;7.57;;;5.35;;
40827;SDS011;26549;50.918;5.338;2023-10-13T00:33:38;10.13;;;6.03;;
40827;SDS011;26549;50.918;5.338;2023-10-13T00:36:07;10.07;;;6.10;;
40827;SDS011;26549;50.918;5.338;2023-10-13T00:38:34;13.30;;;6.05;;
40827;SDS011;26549;50.918;5.338;2023-10-13T00:41:00;10.05;;;5.85;;
40827;SDS011;26549;50.918;5.338;2023-10-13T00:43:45;9.05;;;6.28;;
40827;SDS011;26549;50.918;5.338;2023-10-13T00:46:32;8.65;;;5.50;;
40827;SDS011;26549;50.918;5.338;2023-10-13T00:48:59;8.65;;;5.47;;
40827;SDS011;26549;50.918;5.338;2023-10-13T00:51:27;7.38;;;5.40;;
40827;SDS011;26549;50.918;5.338;2023-10-13T00:54:06;10.75;;;6.07;;
40827;SDS011;26549;50.918;5.338;2023-10-13T00:56:40;8.35;;;6.13;;
40827;SDS011;26549;50.918;5.338;2023-10-13T00:59:25;11.43;;;5.82;;
40827;SDS011;26549;50.918;5.338;2023-10-13T01:01:52;8.90;;;5.82;;
40827;SDS011;26549;50.918;5.338;2023-10-13T01:04:20;9.02;;;4.93;;
40827;SDS011;26549;50.918;5.338;2023-10-13T01:06:52;8.63;;;6.45;;
40827;SDS011;26549;50.918;5.338;2023-10-13T01:09:18;9.70;;;5.20;;
40827;SDS011;26549;50.918;5.338;2023-10-13T01:11:44;10.35;;;6.40;;
40827;SDS011;26549;50.918;5.338;2023-10-13T01:14:17;10.60;;;5.80;;
40827;SDS011;26549;50.918;5.338;2023-10-13T01:16:44;11.15;;;5.28;;
40827;SDS011;26549;50.918;5.338;2023-10-13T01:19:14;10.55;;;5.93;;
40827;SDS011;26549;50.918;5.338;2023-10-13T01:21:45;10.60;;;5.80;;
40827;SDS011;26549;50.918;5.338;2023-10-13T01:24:14;9.13;;;6.40;;
40827;SDS011;26549;50.918;5.338;2023-10-13T01:26:42;15.93;;;7.57;;
40827;SDS011;26549;50.918;5.338;2023-10-13T01:29:08;9.65;;;5.78;;
40827;SDS011;26549;50.918;5.338;2023-10-13T01:31:41;9.00;;;6.05;;
40827;SDS011;26549;50.918;5.338;2023-10-13T01:34:17;10.10;;;6.25;;
40827;SDS011;26549;50.918;5.338;2023-10-13T01:36:50;12.27;;;5.63;;
40827;SDS011;26549;50.918;5.338;2023-10-13T01:39:21;13.18;;;7.28;;
40827;SDS011;26549;50.918;5.338;2023-10-13T01:41:55;13.13;;;6.47;;
40827;SDS011;26549;50.918;5.338;2023-10-13T01:44:21;11.75;;;6.40;;
40827;SDS011;26549;50.918;5.338;2023-10-13T01:46:59;11.18;;;5.68;;
40827;SDS011;26549;50.918;5.338;2023-10-13T01:49:34;12.15;;;6.78;;
40827;SDS011;26549;50.918;5.338;2023-10-13T01:52:13;13.65;;;5.68;;
40827;SDS011;26549;50.918;5.338;2023-10-13T01:54:43;9.40;;;6.20;;
40827;SDS011;26549;50.918;5.338;2023-10-13T01:57:12;10.90;;;6.35;;
40827;SDS011;26549;50.918;5.338;2023-10-13T01:59:44;10.70;;;6.85;;
40827;SDS011;26549;50.918;5.338;2023-10-13T02:02:13;9.70;;;6.40;;
40827;SDS011;26549;50.918;5.338;2023-10-13T02:04:42;13.60;;;6.00;;
40827;SDS011;26549;50.918;5.338;2023-10-13T02:07:15;15.25;;;5.75;;
40827;SDS011;26549;50.918;5.338;2023-10-13T02:09:41;10.05;;;6.50;;
40827;SDS011;26549;50.918;5.338;2023-10-13T02:12:10;8.57;;;6.05;;
40827;SDS011;26549;50.918;5.338;2023-10-13T02:14:36;14.18;;;6.60;;
40827;SDS011;26549;50.918;5.338;2023-10-13T02:17:03;11.65;;;5.95;;
40827;SDS011;26549;50.918;5.338;2023-10-13T02:19:40;12.73;;;6.25;;
40827;SDS011;26549;50.918;5.338;2023-10-13T02:22:09;14.05;;;5.95;;
40827;SDS011;26549;50.918;5.338;2023-10-13T02:24:36;7.05;;;5.85;;
40827;SDS011;26549;50.918;5.338;2023-10-13T02:27:08;10.27;;;6.03;;
40827;SDS011;26549;50.918;5.338;2023-10-13T02:29:40;11.40;;;6.30;;
40827;SDS011;26549;50.918;5.338;2023-10-13T02:32:06;12.85;;;5.70;;
40827;SDS011;26549;50.918;5.338;2023-10-13T02:34:44;9.93;;;5.55;;
40827;SDS011;26549;50.918;5.338;2023-10-13T02:37:10;12.68;;;7.47;;
40827;SDS011;26549;50.918;5.338;2023-10-13T02:39:37;11.25;;;5.93;;
40827;SDS011;26549;50.918;5.338;2023-10-13T02:42:06;9.77;;;5.53;;
40827;SDS011;26549;50.918;5.338;2023-10-13T02:44:33;10.98;;;5.25;;
40827;SDS011;26549;50.918;5.338;2023-10-13T02:47:01;8.27;;;5.70;;
40827;SDS011;26549;50.918;5.338;2023-10-13T02:49:38;12.40;;;5.97;;
40827;SDS011;26549;50.918;5.338;2023-10-13T02:52:08;7.65;;;5.07;;
40827;SDS011;26549;50.918;5.338;2023-10-13T02:54:38;10.82;;;5.78;;
40827;SDS011;26549;50.918;5.338;2023-10-13T02:57:07;12.18;;;5.68;;
40827;SDS011;26549;50.918;5.338;2023-10-13T02:59:33;8.40;;;5.97;;
40827;SDS011;26549;50.918;5.338;2023-10-13T03:02:01;7.72;;;4.75;;
40827;SDS011;26549;50.918;5.338;2023-10-13T03:04:45;15.25;;;5.22;;
40827;SDS011;26549;50.918;5.338;2023-10-13T03:07:17;7.75;;;5.40;;
40827;SDS011;26549;50.918;5.338;2023-10-13T03:09:50;11.95;;;5.93;;
40827;SDS011;26549;50.918;5.338;2023-10-13T03:12:17;11.18;;;4.82;;
40827;SDS011;26549;50.918;5.338;2023-10-13T03:14:43;9.73;;;4.93;;
40827;SDS011;26549;50.918;5.338;2023-10-13T03:17:20;9.05;;;4.47;;
40827;SDS011;26549;50.918;5.338;2023-10-13T03:19:58;11.50;;;5.07;;
40827;SDS011;26549;50.918;5.338;2023-10-13T03:22:25;8.98;;;4.93;;
40827;SDS011;26549;50.918;5.338;2023-10-13T03:24:57;8.93;;;4.82;;
40827;SDS011;26549;50.918;5.338;2023-10-13T03:27:30;9.63;;;5.50;;
40827;SDS011;26549;50.918;5.338;2023-10-13T03:30:14;10.30;;;4.80;;
40827;SDS011;26549;50.918;5.338;2023-10-13T03:32:41;9.63;;;4.03;;
40827;SDS011;26549;50.918;5.338;2023-10-13T03:35:11;7.80;;;3.90;;
40827;SDS011;26549;50.918;5.338;2023-10-13T03:37:51;10.88;;;4.80;;
40827;SDS011;26549;50.918;5.338;2023-10-13T03:40:19;12.27;;;4.18;;
40827;SDS011;26549;50.918;5.338;2023-10-13T03:42:52;7.10;;;4.60;;
40827;SDS011;26549;50.918;5.338;2023-10-13T03:45:30;7.85;;;4.20;;
40827;SDS011;26549;50.918;5.338;2023-10-13T03:48:14;6.85;;;3.67;;
40827;SDS011;26549;50.918;5.338;2023-10-13T03:50:50;10.27;;;4.07;;
40827;SDS011;26549;50.918;5.338;2023-10-13T03:53:32;13.65;;;3.78;;
40827;SDS011;26549;50.918;5.338;2023-10-13T03:56:05;10.82;;;5.10;;
40827;SDS011;26549;50.918;5.338;2023-10-13T03:58:41;7.30;;;3.78;;
40827;SDS011;26549;50.918;5.338;2023-10-13T04:01:11;9.25;;;4.15;;
40827;SDS011;26549;50.918;5.338;2023-10-13T04:03:40;8.50;;;4.00;;
40827;SDS011;26549;50.918;5.338;2023-10-13T04:06:25;11.93;;;4.15;;
40827;SDS011;26549;50.918;5.338;2023-10-13T04:09:28;6.53;;;3.65;;
40827;SDS011;26549;50.918;5.338;2023-10-13T04:11:54;7.35;;;4.07;;
40827;SDS011;26549;50.918;5.338;2023-10-13T04:14:26;7.85;;;3.75;;
40827;SDS011;26549;50.918;5.338;2023-10-13T04:17:13;6.50;;;3.65;;
40827;SDS011;26549;50.918;5.338;2023-10-13T04:19:43;9.15;;;3.72;;
40827;SDS011;26549;50.918;5.338;2023-10-13T04:22:41;9.93;;;4.43;;
40827;SDS011;26549;50.918;5.338;2023-10-13T04:25:21;10.32;;;3.92;;
40827;SDS011;26549;50.918;5.338;2023-10-13T04:28:09;7.10;;;4.63;;
40827;SDS011;26549;50.918;5.338;2023-10-13T04:30:39;7.43;;;3.30;;
40827;SDS011;26549;50.918;5.338;2023-10-13T04:36:09;11.13;;;3.80;;
40827;SDS011;26549;50.918;5.338;2023-10-13T04:41:40;8.65;;;3.88;;
40827;SDS011;26549;50.918;5.338;2023-10-13T04:44:15;9.20;;;3.97;;
40827;SDS011;26549;50.918;5.338;2023-10-13T04:47:01;7.20;;;4.57;;
40827;SDS011;26549;50.918;5.338;2023-10-13T04:49:30;11.20;;;4.05;;
40827;SDS011;26549;50.918;5.338;2023-10-13T04:52:00;10.68;;;3.58;;
40827;SDS011;26549;50.918;5.338;2023-10-13T04:54:33;11.48;;;3.40;;
40827;SDS011;26549;50.918;5.338;2023-10-13T04:57:13;12.35;;;5.32;;
40827;SDS011;26549;50.918;5.338;2023-10-13T04:59:59;11.23;;;3.10;;
40827;SDS011;26549;50.918;5.338;2023-10-13T05:02:36;6.93;;;4.25;;
40827;SDS011;26549;50.918;5.338;2023-10-13T05:05:13;13.43;;;4.75;;
40827;SDS011;26549;50.918;5.338;2023-10-13T05:07:42;6.03;;;3.20;;
40827;SDS011;26549;50.918;5.338;2023-10-13T05:10:27;10.18;;;5.00;;
40827;SDS011;26549;50.918;5.338;2023-10-13T05:13:12;13.30;;;3.72;;
40827;SDS011;26549;50.918;5.338;2023-10-13T05:15:57;6.80;;;2.75;;
40827;SDS011;26549;50.918;5.338;2023-10-13T05:18:41;9.57;;;3.42;;
40827;SDS011;26549;50.918;5.338;2023-10-13T05:21:26;7.75;;;3.80;;
40827;SDS011;26549;50.918;5.338;2023-10-13T05:24:10;4.70;;;3.13;;
40827;SDS011;26549;50.918;5.338;2023-10-13T05:26:54;9.35;;;4.40;;
40827;SDS011;26549;50.918;5.338;2023-10-13T05:29:42;9.98;;;2.83;;
40827;SDS011;26549;50.918;5.338;2023-10-13T05:32:28;10.60;;;3.15;;
40827;SDS011;26549;50.918;5.338;2023-10-13T05:38:01;7.07;;;2.72;;
40827;SDS011;26549;50.918;5.338;2023-10-13T05:40:58;7.18;;;3.17;;
40827;SDS011;26549;50.918;5.338;2023-10-13T05:43:44;14.52;;;4.13;;
40827;SDS011;26549;50.918;5.338;2023-10-13T05:46:29;7.43;;;3.33;;
40827;SDS011;26549;50.918;5.338;2023-10-13T05:49:05;9.77;;;3.35;;
40827;SDS011;26549;50.918;5.338;2023-10-13T05:51:42;8.77;;;2.80;;
40827;SDS011;26549;50.918;5.338;2023-10-13T05:54:34;7.65;;;3.88;;
40827;SDS011;26549;50.918;5.338;2023-10-13T05:57:19;10.48;;;3.10;;
40827;SDS011;26549;50.918;5.338;2023-10-13T06:00:05;6.43;;;3.88;;
40827;SDS011;26549;50.918;5.338;2023-10-13T06:02:49;13.43;;;4.60;;
40827;SDS011;26549;50.918;5.338;2023-10-13T06:05:33;9.70;;;3.03;;
40827;SDS011;26549;50.918;5.338;2023-10-13T06:08:18;8.75;;;3.33;;
40827;SDS011;26549;50.918;5.338;2023-10-13T06:11:02;8.07;;;3.65;;
40827;SDS011;26549;50.918;5.338;2023-10-13T06:13:47;11.40;;;3.28;;
40827;SDS011;26549;50.918;5.338;2023-10-13T06:16:31;10.93;;;5.60;;
40827;SDS011;26549;50.918;5.338;2023-10-13T06:19:16;8.45;;;3.42;;
40827;SDS011;26549;50.918;5.338;2023-10-13T06:22:00;8.02;;;4.38;;
40827;SDS011;26549;50.918;5.338;2023-10-13T06:24:44;8.43;;;3.08;;
40827;SDS011;26549;50.918;5.338;2023-10-13T06:27:28;8.32;;;2.80;;
40827;SDS011;26549;50.918;5.338;2023-10-13T06:30:13;11.13;;;3.25;;
40827;SDS011;26549;50.918;5.338;2023-10-13T06:32:38;7.15;;;2.90;;
40827;SDS011;26549;50.918;5.338;2023-10-13T06:35:08;7.82;;;3.13;;
40827;SDS011;26549;50.918;5.338;2023-10-13T06:37:34;12.80;;;2.83;;
40827;SDS011;26549;50.918;5.338;2023-10-13T06:40:10;10.43;;;3.22;;
40827;SDS011;26549;50.918;5.338;2023-10-13T06:42:48;9.50;;;4.32;;
40827;SDS011;26549;50.918;5.338;2023-10-13T06:45:14;11.35;;;3.10;;
40827;SDS011;26549;50.918;5.338;2023-10-13T06:47:42;5.78;;;3.60;;
40827;SDS011;26549;50.918;5.338;2023-10-13T06:50:17;9.50;;;2.83;;
40827;SDS011;26549;50.918;5.338;2023-10-13T06:52:49;9.32;;;2.70;;
40827;SDS011;26549;50.918;5.338;2023-10-13T06:55:17;7.45;;;3.78;;
40827;SDS011;26549;50.918;5.338;2023-10-13T06:57:48;9.07;;;3.47;;
40827;SDS011;26549;50.918;5.338;2023-10-13T07:00:16;9.50;;;3.20;;
40827;SDS011;26549;50.918;5.338;2023-10-13T07:02:52;7.90;;;4.53;;
40827;SDS011;26549;50.918;5.338;2023-10-13T07:05:18;14.57;;;4.00;;
40827;SDS011;26549;50.918;5.338;2023-10-13T07:07:44;11.90;;;4.13;;
40827;SDS011;26549;50.918;5.338;2023-10-13T07:10:11;9.07;;;4.30;;
40827;SDS011;26549;50.918;5.338;2023-10-13T07:12:40;7.70;;;3.25;;
40827;SDS011;26549;50.918;5.338;2023-10-13T07:15:09;8.30;;;4.45;;
40827;SDS011;26549;50.918;5.338;2023-10-13T07:17:47;4.70;;;2.70;;
40827;SDS011;26549;50.918;5.338;2023-10-13T07:22:58;7.57;;;3.45;;
40827;SDS011;26549;50.918;5.338;2023-10-13T07:25:31;7.68;;;4.47;;
40827;SDS011;26549;50.918;5.338;2023-10-13T07:28:01;7.78;;;3.92;;
40827;SDS011;26549;50.918;5.338;2023-10-13T07:33:06;12.38;;;3.65;;
40827;SDS011;26549;50.918;5.338;2023-10-13T07:35:35;11.15;;;3.67;;
40827;SDS011;26549;50.918;5.338;2023-10-13T07:38:02;7.18;;;2.67;;
40827;SDS011;26549;50.918;5.338;2023-10-13T07:40:32;10.75;;;3.13;;
40827;SDS011;26549;50.918;5.338;2023-10-13T07:42:58;8.48;;;3.05;;
40827;SDS011;26549;50.918;5.338;2023-10-13T07:45:29;12.90;;;3.15;;
40827;SDS011;26549;50.918;5.338;2023-10-13T07:48:03;11.63;;;3.70;;
40827;SDS011;26549;50.918;5.338;2023-10-13T07:50:45;13.02;;;4.28;;
40827;SDS011;26549;50.918;5.338;2023-10-13T07:53:26;16.23;;;2.95;;
40827;SDS011;26549;50.918;5.338;2023-10-13T07:55:59;7.07;;;3.38;;
40827;SDS011;26549;50.918;5.338;2023-10-13T07:58:28;10.60;;;3.50;;
40827;SDS011;26549;50.918;5.338;2023-10-13T08:00:56;13.77;;;3.80;;
40827;SDS011;26549;50.918;5.338;2023-10-13T08:03:32;9.38;;;4.72;;
40827;SDS011;26549;50.918;5.338;2023-10-13T08:06:12;8.43;;;3.45;;
40827;SDS011;26549;50.918;5.338;2023-10-13T08:08:39;12.90;;;3.47;;
40827;SDS011;26549;50.918;5.338;2023-10-13T08:11:12;5.82;;;3.00;;
40827;SDS011;26549;50.918;5.338;2023-10-13T08:13:54;11.20;;;3.80;;
40827;SDS011;26549;50.918;5.338;2023-10-13T08:16:24;6.43;;;3.97;;
40827;SDS011;26549;50.918;5.338;2023-10-13T08:19:10;5.10;;;3.08;;
40827;SDS011;26549;50.918;5.338;2023-10-13T08:21:45;9.02;;;3.20;;
40827;SDS011;26549;50.918;5.338;2023-10-13T08:24:17;8.52;;;2.80;;
40827;SDS011;26549;50.918;5.338;2023-10-13T08:27:01;7.97;;;3.78;;
40827;SDS011;26549;50.918;5.338;2023-10-13T08:29:44;7.72;;;3.30;;
40827;SDS011;26549;50.918;5.338;2023-10-13T08:32:14;12.15;;;4.18;;
40827;SDS011;26549;50.918;5.338;2023-10-13T08:34:47;5.70;;;3.10;;
40827;SDS011;26549;50.918;5.338;2023-10-13T08:39:45;5.57;;;3.13;;
40827;SDS011;26549;50.918;5.338;2023-10-13T08:42:45;7.03;;;3.17;;
40827;SDS011;26549;50.918;5.338;2023-10-13T08:45:11;6.70;;;3.15;;
40827;SDS011;26549;50.918;5.338;2023-10-13T08:47:59;7.10;;;3.60;;
40827;SDS011;26549;50.918;5.338;2023-10-13T08:50:35;7.50;;;3.03;;
40827;SDS011;26549;50.918;5.338;2023-10-13T08:53:24;6.35;;;3.28;;
40827;SDS011;26549;50.918;5.338;2023-10-13T08:56:07;7.60;;;4.40;;
40827;SDS011;26549;50.918;5.338;2023-10-13T08:58:37;8.93;;;3.53;;
40827;SDS011;26549;50.918;5.338;2023-10-13T09:01:25;9.35;;;3.38;;
40827;SDS011;26549;50.918;5.338;2023-10-13T09:04:06;5.90;;;3.60;;
40827;SDS011;26549;50.918;5.338;2023-10-13T09:06:55;8.02;;;3.63;;
40827;SDS011;26549;50.918;5.338;2023-10-13T09:09:25;5.70;;;3.42;;
40827;SDS011;26549;50.918;5.338;2023-10-13T09:12:02;8.07;;;3.65;;
40827;SDS011;26549;50.918;5.338;2023-10-13T09:14:38;5.78;;;3.38;;
40827;SDS011;26549;50.918;5.338;2023-10-13T09:17:14;9.90;;;3.88;;
40827;SDS011;26549;50.918;5.338;2023-10-13T09:20:02;7.30;;;4.03;;
40827;SDS011;26549;50.918;5.338;2023-10-13T09:22:50;9.48;;;3.60;;
40827;SDS011;26549;50.918;5.338;2023-10-13T09:25:28;7.78;;;3.30;;
40827;SDS011;26549;50.918;5.338;2023-10-13T09:28:13;5.80;;;3.97;;
40827;SDS011;26549;50.918;5.338;2023-10-13T09:30:46;8.38;;;3.63;;
40827;SDS011;26549;50.918;5.338;2023-10-13T09:33:24;12.75;;;4.18;;
40827;SDS011;26549;50.918;5.338;2023-10-13T09:36:01;9.27;;;4.43;;
40827;SDS011;26549;50.918;5.338;2023-10-13T09:38:32;8.10;;;4.25;;
40827;SDS011;26549;50.918;5.338;2023-10-13T09:40:58;7.65;;;4.10;;
40827;SDS011;26549;50.918;5.338;2023-10-13T09:43:35;9.73;;;4.80;;
40827;SDS011;26549;50.918;5.338;2023-10-13T09:46:02;10.93;;;3.40;;
40827;SDS011;26549;50.918;5.338;2023-10-13T09:48:33;9.40;;;4.18;;
40827;SDS011;26549;50.918;5.338;2023-10-13T09:51:02;10.75;;;3.97;;
40827;SDS011;26549;50.918;5.338;2023-10-13T09:53:35;7.95;;;3.95;;
40827;SDS011;26549;50.918;5.338;2023-10-13T09:56:14;10.82;;;4.00;;
40827;SDS011;26549;50.918;5.338;2023-10-13T10:04:08;9.60;;;4.05;;
40827;SDS011;26549;50.918;5.338;2023-10-13T10:07:03;7.97;;;3.72;;
40827;SDS011;26549;50.918;5.338;2023-10-13T10:09:29;7.53;;;3.97;;
40827;SDS011;26549;50.918;5.338;2023-10-13T10:17:58;6.43;;;3.80;;
40827;SDS011;26549;50.918;5.338;2023-10-13T10:20:34;7.63;;;3.75;;
40827;SDS011;26549;50.918;5.338;2023-10-13T10:23:07;7.68;;;3.53;;
40827;SDS011;26549;50.918;5.338;2023-10-13T10:25:47;7.38;;;3.83;;
40827;SDS011;26549;50.918;5.338;2023-10-13T10:28:16;12.15;;;3.58;;
40827;SDS011;26549;50.918;5.338;2023-10-13T10:30:44;8.05;;;3.63;;
40827;SDS011;26549;50.918;5.338;2023-10-13T10:33:10;10.95;;;3.97;;
40827;SDS011;26549;50.918;5.338;2023-10-13T10:35:46;12.25;;;3.72;;
40827;SDS011;26549;50.918;5.338;2023-10-13T10:38:24;9.50;;;4.07;;
40827;SDS011;26549;50.918;5.338;2023-10-13T10:41:06;8.20;;;3.97;;
40827;SDS011;26549;50.918;5.338;2023-10-13T10:43:36;10.68;;;3.88;;
40827;SDS011;26549;50.918;5.338;2023-10-13T10:48:41;8.70;;;3.05;;
40827;SDS011;26549;50.918;5.338;2023-10-13T10:51:11;6.53;;;3.80;;
40827;SDS011;26549;50.918;5.338;2023-10-13T10:53:48;6.28;;;3.92;;
40827;SDS011;26549;50.918;5.338;2023-10-13T10:56:22;8.57;;;3.65;;
40827;SDS011;26549;50.918;5.338;2023-10-13T11:01:26;11.38;;;3.65;;
40827;SDS011;26549;50.918;5.338;2023-10-13T11:04:04;9.43;;;3.72;;
40827;SDS011;26549;50.918;5.338;2023-10-13T11:06:44;8.65;;;4.32;;
40827;SDS011;26549;50.918;5.338;2023-10-13T11:09:12;9.40;;;3.55;;
40827;SDS011;26549;50.918;5.338;2023-10-13T11:11:46;9.40;;;3.17;;
40827;SDS011;26549;50.918;5.338;2023-10-13T11:14:20;22.98;;;4.25;;
40827;SDS011;26549;50.918;5.338;2023-10-13T11:16:55;8.50;;;3.70;;
40827;SDS011;26549;50.918;5.338;2023-10-13T11:19:43;8.40;;;3.72;;
40827;SDS011;26549;50.918;5.338;2023-10-13T11:22:13;11.90;;;4.22;;
40827;SDS011;26549;50.918;5.338;2023-10-13T11:25:03;11.10;;;3.70;;
40827;SDS011;26549;50.918;5.338;2023-10-13T11:27:39;10.85;;;3.50;;
40827;SDS011;26549;50.918;5.338;2023-10-13T11:30:17;11.07;;;3.85;;
40827;SDS011;26549;50.918;5.338;2023-10-13T11:33:02;10.45;;;4.03;;
40827;SDS011;26549;50.918;5.338;2023-10-13T11:35:32;19.38;;;3.65;;
40827;SDS011;26549;50.918;5.338;2023-10-13T11:38:17;12.45;;;3.05;;
40827;SDS011;26549;50.918;5.338;2023-10-13T11:40:56;13.73;;;4.40;;
40827;SDS011;26549;50.918;5.338;2023-10-13T11:43:29;7.55;;;2.60;;
40827;SDS011;26549;50.918;5.338;2023-10-13T11:46:05;10.43;;;4.28;;
40827;SDS011;26549;50.918;5.338;2023-10-13T11:48:33;10.52;;;4.03;;
40827;SDS011;26549;50.918;5.338;2023-10-13T11:51:02;8.48;;;3.25;;
40827;SDS011;26549;50.918;5.338;2023-10-13T11:53:32;9.23;;;3.10;;
40827;SDS011;26549;50.918;5.338;2023-10-13T11:56:02;7.57;;;3.90;;
40827;SDS011;26549;50.918;5.338;2023-10-13T11:58:38;8.95;;;3.33;;
40827;SDS011;26549;50.918;5.338;2023-10-13T12:01:04;11.80;;;3.67;;
40827;SDS011;26549;50.918;5.338;2023-10-13T12:03:40;10.63;;;3.80;;
40827;SDS011;26549;50.918;5.338;2023-10-13T12:06:26;10.25;;;3.35;;
40827;SDS011;26549;50.918;5.338;2023-10-13T12:09:06;9.63;;;3.40;;
40827;SDS011;26549;50.918;5.338;2023-10-13T12:11:42;15.73;;;3.95;;
40827;SDS011;26549;50.918;5.338;2023-10-13T12:14:10;8.10;;;3.28;;
40827;SDS011;26549;50.918;5.338;2023-10-13T12:16:44;10.77;;;3.78;;
40827;SDS011;26549;50.918;5.338;2023-10-13T12:19:16;14.68;;;4.22;;
40827;SDS011;26549;50.918;5.338;2023-10-13T12:21:51;11.48;;;4.22;;
40827;SDS011;26549;50.918;5.338;2023-10-13T12:24:23;9.70;;;3.17;;
40827;SDS011;26549;50.918;5.338;2023-10-13T12:27:02;7.68;;;3.50;;
40827;SDS011;26549;50.918;5.338;2023-10-13T12:29:59;8.25;;;3.15;;
40827;SDS011;26549;50.918;5.338;2023-10-13T12:32:32;10.82;;;4.75;;
40827;SDS011;26549;50.918;5.338;2023-10-13T12:35:00;12.30;;;3.33;;
40827;SDS011;26549;50.918;5.338;2023-10-13T12:37:29;10.15;;;3.22;;
40827;SDS011;26549;50.918;5.338;2023-10-13T12:40:09;14.95;;;3.92;;
40827;SDS011;26549;50.918;5.338;2023-10-13T12:45:41;8.50;;;3.00;;
40827;SDS011;26549;50.918;5.338;2023-10-13T12:48:26;10.93;;;4.38;;
40827;SDS011;26549;50.918;5.338;2023-10-13T12:51:10;10.77;;;3.13;;
40827;SDS011;26549;50.918;5.338;2023-10-13T12:56:17;5.13;;;2.20;;
40827;SDS011;26549;50.918;5.338;2023-10-13T12:58:51;9.95;;;4.03;;
40827;SDS011;26549;50.918;5.338;2023-10-13T13:01:19;5.80;;;2.97;;
40827;SDS011;26549;50.918;5.338;2023-10-13T13:03:51;7.32;;;3.65;;
40827;SDS011;26549;50.918;5.338;2023-10-13T13:06:22;10.95;;;3.22;;
40827;SDS011;26549;50.918;5.338;2023-10-13T13:08:52;4.60;;;3.10;;
40827;SDS011;26549;50.918;5.338;2023-10-13T13:11:18;10.20;;;3.58;;
40827;SDS011;26549;50.918;5.338;2023-10-13T13:13:44;8.13;;;2.97;;
40827;SDS011;26549;50.918;5.338;2023-10-13T13:16:12;9.45;;;3.22;;
40827;SDS011;26549;50.918;5.338;2023-10-13T13:18:40;12.10;;;3.08;;
40827;SDS011;26549;50.918;5.338;2023-10-13T13:21:08;12.07;;;3.22;;
40827;SDS011;26549;50.918;5.338;2023-10-13T13:23:46;14.20;;;3.17;;
40827;SDS011;26549;50.918;5.338;2023-10-13T13:26:12;13.18;;;5.00;;
40827;SDS011;26549;50.918;5.338;2023-10-13T13:28:44;10.18;;;2.92;;
40827;SDS011;26549;50.918;5.338;2023-10-13T13:31:11;9.65;;;3.22;;
40827;SDS011;26549;50.918;5.338;2023-10-13T13:33:40;11.35;;;3.35;;
40827;SDS011;26549;50.918;5.338;2023-10-13T13:36:08;9.00;;;3.20;;
40827;SDS011;26549;50.918;5.338;2023-10-13T13:38:44;7.13;;;3.25;;
40827;SDS011;26549;50.918;5.338;2023-10-13T13:41:15;7.82;;;2.95;;
40827;SDS011;26549;50.918;5.338;2023-10-13T13:43:43;7.63;;;3.28;;
40827;SDS011;26549;50.918;5.338;2023-10-13T13:46:16;7.88;;;3.10;;
40827;SDS011;26549;50.918;5.338;2023-10-13T13:48:43;12.43;;;4.25;;
40827;SDS011;26549;50.918;5.338;2023-10-13T13:51:13;5.93;;;3.05;;
40827;SDS011;26549;50.918;5.338;2023-10-13T13:53:51;7.53;;;3.35;;
40827;SDS011;26549;50.918;5.338;2023-10-13T13:56:18;7.63;;;4.18;;
40827;SDS011;26549;50.918;5.338;2023-10-13T13:58:45;7.50;;;3.30;;
40827;SDS011;26549;50.918;5.338;2023-10-13T14:01:12;7.65;;;3.33;;
40827;SDS011;26549;50.918;5.338;2023-10-13T14:03:41;5.68;;;3.35;;
40827;SDS011;26549;50.918;5.338;2023-10-13T14:06:11;7.82;;;3.30;;
40827;SDS011;26549;50.918;5.338;2023-10-13T14:08:45;8.13;;;3.00;;
40827;SDS011;26549;50.918;5.338;2023-10-13T14:11:19;7.63;;;3.65;;
40827;SDS011;26549;50.918;5.338;2023-10-13T14:14:11;15.23;;;4.45;;
40827;SDS011;26549;50.918;5.338;2023-10-13T14:16:50;10.48;;;3.45;;
40827;SDS011;26549;50.918;5.338;2023-10-13T14:19:17;17.48;;;3.80;;
40827;SDS011;26549;50.918;5.338;2023-10-13T14:21:55;7.88;;;4.00;;
40827;SDS011;26549;50.918;5.338;2023-10-13T14:24:22;11.07;;;3.22;;
40827;SDS011;26549;50.918;5.338;2023-10-13T14:26:58;6.32;;;2.70;;
40827;SDS011;26549;50.918;5.338;2023-10-13T14:29:34;7.97;;;3.03;;
40827;SDS011;26549;50.918;5.338;2023-10-13T14:32:08;6.88;;;2.70;;
40827;SDS011;26549;50.918;5.338;2023-10-13T14:34:45;9.43;;;3.33;;
40827;SDS011;26549;50.918;5.338;2023-10-13T14:39:52;9.93;;;3.20;;
40827;SDS011;26549;50.918;5.338;2023-10-13T14:42:25;7.28;;;3.30;;
40827;SDS011;26549;50.918;5.338;2023-10-13T14:44:52;7.43;;;2.97;;
40827;SDS011;26549;50.918;5.338;2023-10-13T14:47:24;6.43;;;3.00;;
40827;SDS011;26549;50.918;5.338;2023-10-13T14:49:52;5.43;;;3.10;;
40827;SDS011;26549;50.918;5.338;2023-10-13T14:52:20;10.13;;;3.42;;
40827;SDS011;26549;50.918;5.338;2023-10-13T14:54:48;7.03;;;3.42;;
40827;SDS011;26549;50.918;5.338;2023-10-13T14:57:20;7.47;;;2.75;;
40827;SDS011;26549;50.918;5.338;2023-10-13T14:59:53;5.95;;;3.28;;
40827;SDS011;26549;50.918;5.338;2023-10-13T15:02:19;6.03;;;3.78;;
40827;SDS011;26549;50.918;5.338;2023-10-13T15:04:49;5.78;;;2.53;;
40827;SDS011;26549;50.918;5.338;2023-10-13T15:07:16;7.40;;;3.30;;
40827;SDS011;26549;50.918;5.338;2023-10-13T15:09:43;6.75;;;2.90;;
40827;SDS011;26549;50.918;5.338;2023-10-13T15:12:09;6.93;;;3.42;;
40827;SDS011;26549;50.918;5.338;2023-10-13T15:14:37;6.57;;;2.92;;
40827;SDS011;26549;50.918;5.338;2023-10-13T15:17:04;6.13;;;3.15;;
40827;SDS011;26549;50.918;5.338;2023-10-13T15:19:32;6.20;;;3.55;;
40827;SDS011;26549;50.918;5.338;2023-10-13T15:22:03;7.60;;;3.20;;
40827;SDS011;26549;50.918;5.338;2023-10-13T15:24:37;7.27;;;3.20;;
40827;SDS011;26549;50.918;5.338;2023-10-13T15:27:25;4.65;;;2.70;;
40827;SDS011;26549;50.918;5.338;2023-10-13T15:29:54;4.10;;;2.80;;
40827;SDS011;26549;50.918;5.338;2023-10-13T15:32:19;7.80;;;3.17;;
40827;SDS011;26549;50.918;5.338;2023-10-13T15:35:03;7.45;;;2.63;;
40827;SDS011;26549;50.918;5.338;2023-10-13T15:37:30;5.30;;;2.70;;
40827;SDS011;26549;50.918;5.338;2023-10-13T15:39:56;12.35;;;3.08;;
40827;SDS011;26549;50.918;5.338;2023-10-13T15:42:23;5.15;;;2.67;;
40827;SDS011;26549;50.918;5.338;2023-10-13T15:44:48;5.30;;;3.05;;
40827;SDS011;26549;50.918;5.338;2023-10-13T15:47:15;6.07;;;2.85;;
40827;SDS011;26549;50.918;5.338;2023-10-13T15:49:40;6.45;;;2.72;;
40827;SDS011;26549;50.918;5.338;2023-10-13T15:52:07;6.85;;;3.28;;
40827;SDS011;26549;50.918;5.338;2023-10-13T15:54:36;6.63;;;2.55;;
40827;SDS011;26549;50.918;5.338;2023-10-13T15:57:02;5.28;;;2.75;;
40827;SDS011;26549;50.918;5.338;2023-10-13T15:59:32;6.65;;;3.75;;
40827;SDS011;26549;50.918;5.338;2023-10-13T16:01:59;5.80;;;2.85;;
40827;SDS011;26549;50.918;5.338;2023-10-13T16:04:25;6.55;;;2.83;;